createdAt,value
2022-08-04T00:01:41.997Z,4.13
2022-08-04T00:04:14.990Z,3.90
2022-08-04T00:07:01.583Z,3.77
2022-08-04T00:09:32.865Z,5.20
2022-08-04T00:12:03.024Z,4.30
2022-08-04T00:14:32.025Z,4.43
2022-08-04T00:16:59.604Z,4.60
2022-08-04T00:19:33.984Z,5.03
2022-08-04T00:22:05.262Z,4.60
2022-08-04T00:24:33.515Z,4.10
2022-08-04T00:27:01.197Z,4.17
2022-08-04T00:29:28.998Z,4.30
2022-08-04T00:31:57.974Z,3.43
2022-08-04T00:34:27.336Z,4.97
2022-08-04T00:36:56.341Z,4.63
2022-08-04T00:39:26.090Z,4.67
2022-08-04T00:42:11.304Z,4.90
2022-08-04T00:44:45.210Z,3.87
2022-08-04T00:47:30.541Z,4.13
2022-08-04T00:50:06.854Z,4.30
2022-08-04T00:52:38.534Z,4.57
2022-08-04T00:55:20.398Z,3.90
2022-08-04T00:58:04.475Z,4.63
2022-08-04T01:00:41.527Z,3.70
2022-08-04T01:03:13.200Z,3.80
2022-08-04T01:05:50.678Z,3.80
2022-08-04T01:08:33.960Z,4.20
2022-08-04T01:11:17.046Z,3.30
2022-08-04T01:14:02.006Z,4.50
2022-08-04T01:16:32.747Z,4.10
2022-08-04T01:19:02.405Z,4.00
2022-08-04T01:22:01.946Z,4.37
2022-08-04T01:25:00.141Z,3.83
2022-08-04T01:27:47.567Z,3.50
2022-08-04T01:30:17.172Z,3.20
2022-08-04T01:32:50.187Z,4.20
2022-08-04T01:35:46.982Z,4.40
2022-08-04T01:38:21.327Z,3.93
2022-08-04T01:40:52.473Z,4.97
2022-08-04T01:43:21.505Z,4.60
2022-08-04T01:45:52.150Z,4.00
2022-08-04T01:48:25.060Z,4.03
2022-08-04T01:50:53.478Z,4.20
2022-08-04T01:53:22.239Z,3.90
2022-08-04T01:58:30.081Z,4.27
2022-08-04T02:01:02.775Z,3.60
2022-08-04T02:04:18.549Z,3.90
2022-08-04T02:06:33.178Z,4.00
2022-08-04T02:09:08.573Z,3.77
2022-08-04T02:11:36.256Z,4.33
2022-08-04T02:14:12.548Z,4.23
2022-08-04T02:16:45.645Z,3.67
2022-08-04T02:19:37.640Z,4.13
2022-08-04T02:22:09.108Z,4.23
2022-08-04T02:24:43.330Z,4.43
2022-08-04T02:27:13.175Z,4.47
2022-08-04T02:29:43.845Z,4.20
2022-08-04T02:32:19.537Z,4.50
2022-08-04T02:34:53.359Z,3.73
2022-08-04T02:37:22.468Z,4.30
2022-08-04T02:39:54.311Z,4.53
2022-08-04T02:42:22.443Z,3.80
2022-08-04T02:44:51.777Z,8.97
2022-08-04T02:47:22.671Z,19.53
2022-08-04T02:49:52.690Z,6.40
2022-08-04T02:52:21.594Z,6.90
2022-08-04T02:54:52.408Z,5.83
2022-08-04T02:57:21.053Z,6.50
2022-08-04T03:00:00.373Z,9.10
2022-08-04T03:02:36.117Z,6.03
2022-08-04T03:05:09.710Z,5.73
2022-08-04T03:08:16.247Z,4.40
2022-08-04T03:11:06.845Z,8.10
2022-08-04T03:14:09.425Z,8.80
2022-08-04T03:17:08.181Z,4.40
2022-08-04T03:20:00.186Z,6.23
2022-08-04T03:23:12.673Z,8.00
2022-08-04T03:26:13.225Z,4.47
2022-08-04T03:29:12.275Z,4.70
2022-08-04T03:32:22.144Z,5.13
2022-08-04T03:35:04.775Z,6.60
2022-08-04T03:37:50.858Z,8.47
2022-08-04T03:40:37.189Z,6.40
2022-08-04T03:43:57.753Z,5.13
2022-08-04T03:47:05.795Z,4.10
2022-08-04T03:49:59.745Z,4.60
2022-08-04T03:53:09.897Z,4.30
2022-08-04T03:55:55.240Z,4.43
2022-08-04T03:58:40.787Z,4.33
2022-08-04T04:01:17.752Z,4.87
2022-08-04T04:04:16.853Z,4.50
2022-08-04T04:07:35.911Z,6.20
2022-08-04T04:10:29.073Z,5.33
2022-08-04T04:13:15.433Z,4.20
2022-08-04T04:15:58.407Z,5.23
2022-08-04T04:18:39.518Z,4.30
2022-08-04T04:21:28.828Z,5.50
2022-08-04T04:24:26.244Z,5.13
2022-08-04T04:27:08.354Z,4.60
2022-08-04T04:30:04.067Z,5.10
2022-08-04T04:32:37.481Z,5.70
2022-08-04T04:35:12.961Z,4.60
2022-08-04T04:38:05.261Z,4.87
2022-08-04T04:40:46.738Z,5.50
2022-08-04T04:43:52.743Z,7.77
2022-08-04T04:46:28.208Z,5.80
2022-08-04T04:49:00.013Z,5.70
2022-08-04T04:51:45.371Z,5.13
2022-08-04T04:54:22.936Z,4.60
2022-08-04T04:57:04.535Z,5.40
2022-08-04T04:59:34.713Z,4.83
2022-08-04T05:02:38.764Z,4.93
2022-08-04T05:05:41.486Z,4.53
2022-08-04T05:08:56.764Z,4.70
2022-08-04T05:11:58.176Z,4.80
2022-08-04T05:14:35.132Z,4.60
2022-08-04T05:17:22.164Z,4.03
2022-08-04T05:19:58.811Z,4.13
2022-08-04T05:22:29.995Z,4.17
2022-08-04T05:25:05.157Z,4.33
2022-08-04T05:27:40.148Z,4.57
2022-08-04T05:30:09.618Z,4.30
2022-08-04T05:32:42.352Z,3.60
2022-08-04T05:35:12.722Z,3.90
2022-08-04T05:37:42.416Z,4.00
2022-08-04T05:40:11.818Z,4.20
2022-08-04T05:42:41.610Z,3.93
2022-08-04T05:45:10.187Z,4.17
2022-08-04T05:47:38.296Z,3.83
2022-08-04T05:50:07.995Z,4.10
2022-08-04T05:52:37.512Z,4.27
2022-08-04T05:55:06.293Z,3.77
2022-08-04T05:57:34.455Z,4.00
2022-08-04T06:00:38.471Z,3.97
2022-08-04T06:02:55.823Z,3.90
2022-08-04T06:05:24.010Z,3.47
2022-08-04T06:08:12.197Z,4.07
2022-08-04T06:10:40.995Z,3.50
2022-08-04T06:13:48.871Z,3.53
2022-08-04T06:16:02.319Z,4.50
2022-08-04T06:19:56.236Z,3.80
2022-08-04T06:21:20.040Z,3.07
2022-08-04T06:23:53.751Z,3.20
2022-08-04T06:26:29.147Z,3.13
2022-08-04T06:28:58.377Z,3.03
2022-08-04T06:32:29.425Z,4.27
2022-08-04T06:34:33.996Z,3.27
2022-08-04T06:37:01.697Z,4.40
2022-08-04T06:39:30.584Z,4.90
2022-08-04T06:42:21.920Z,3.60
2022-08-04T06:44:47.365Z,3.70
2022-08-04T06:47:19.378Z,3.10
2022-08-04T06:51:24.435Z,4.03
2022-08-04T06:52:36.467Z,3.87
2022-08-04T06:55:05.400Z,3.40
2022-08-04T06:57:34.621Z,4.00
2022-08-04T07:00:05.884Z,3.50
2022-08-04T07:02:40.667Z,3.33
2022-08-04T07:05:09.271Z,3.07
2022-08-04T07:07:56.545Z,3.97
2022-08-04T07:10:25.718Z,3.60
2022-08-04T07:12:54.014Z,3.80
2022-08-04T07:15:22.397Z,3.70
2022-08-04T07:17:52.555Z,3.40
2022-08-04T07:20:35.355Z,4.70
2022-08-04T07:23:04.934Z,4.23
2022-08-04T07:26:00.426Z,3.97
2022-08-04T07:28:21.184Z,3.27
2022-08-04T07:30:50.008Z,4.27
2022-08-04T07:33:19.346Z,2.83
2022-08-04T07:36:05.458Z,3.63
2022-08-04T07:38:37.439Z,2.97
2022-08-04T07:44:01.805Z,3.87
2022-08-04T07:46:31.578Z,3.40
2022-08-04T07:49:00.834Z,3.23
2022-08-04T07:51:30.525Z,3.70
2022-08-04T07:54:00.260Z,3.17
2022-08-04T07:56:28.947Z,2.83
2022-08-04T07:58:56.860Z,3.90
2022-08-04T08:01:24.952Z,3.50
2022-08-04T08:03:54.664Z,3.63
2022-08-04T08:06:33.072Z,3.20
2022-08-04T08:09:13.667Z,3.57
2022-08-04T08:12:35.969Z,2.60
2022-08-04T08:14:30.484Z,3.07
2022-08-04T08:16:59.652Z,2.90
2022-08-04T08:19:27.263Z,3.10
2022-08-04T08:21:59.696Z,3.33
2022-08-04T08:24:28.098Z,3.20
2022-08-04T08:26:56.781Z,3.07
2022-08-04T08:29:24.613Z,3.33
2022-08-04T08:31:56.380Z,2.87
2022-08-04T08:34:27.620Z,4.70
2022-08-04T08:37:00.565Z,3.20
2022-08-04T08:39:34.944Z,2.97
2022-08-04T08:42:16.733Z,2.23
2022-08-04T08:45:17.944Z,2.70
2022-08-04T08:48:05.955Z,2.90
2022-08-04T08:51:06.906Z,2.60
2022-08-04T08:53:49.253Z,2.43
2022-08-04T08:56:31.161Z,2.47
2022-08-04T08:59:22.391Z,2.70
2022-08-04T09:02:04.365Z,2.67
2022-08-04T09:04:58.188Z,2.50
2022-08-04T09:07:37.416Z,2.63
2022-08-04T09:10:11.055Z,2.60
2022-08-04T09:12:44.986Z,2.33
2022-08-04T09:15:15.557Z,2.50
2022-08-04T09:17:48.000Z,2.70
2022-08-04T09:20:23.354Z,2.70
2022-08-04T09:22:53.416Z,2.40
2022-08-04T09:25:25.598Z,3.70
2022-08-04T09:27:55.910Z,2.80
2022-08-04T09:30:29.050Z,2.90
2022-08-04T09:33:09.200Z,2.33
2022-08-04T09:35:42.902Z,2.27
2022-08-04T09:38:20.893Z,2.43
2022-08-04T09:40:58.716Z,3.20
2022-08-04T09:44:43.133Z,2.40
2022-08-04T09:46:28.012Z,2.27
2022-08-04T09:48:59.854Z,2.57
2022-08-04T09:51:56.887Z,2.20
2022-08-04T09:54:33.292Z,2.43
2022-08-04T09:57:09.393Z,2.50
2022-08-04T09:59:44.040Z,2.40
2022-08-04T10:02:14.725Z,2.50
2022-08-04T10:04:43.795Z,2.73
2022-08-04T10:07:23.918Z,2.40
2022-08-04T10:10:01.410Z,2.50
2022-08-04T10:12:40.502Z,2.53
2022-08-04T10:15:12.141Z,2.80
2022-08-04T10:17:51.832Z,2.73
2022-08-04T10:20:44.582Z,2.70
2022-08-04T10:23:16.061Z,2.77
2022-08-04T10:26:07.192Z,2.80
2022-08-04T10:28:43.249Z,2.40
2022-08-04T10:31:16.765Z,2.87
2022-08-04T10:33:51.031Z,2.93
2022-08-04T10:36:22.027Z,2.47
2022-08-04T10:38:56.270Z,5.80
2022-08-04T10:41:29.780Z,2.30
2022-08-04T10:44:07.428Z,3.30
2022-08-04T10:46:38.509Z,3.43
2022-08-04T10:49:10.448Z,2.90
2022-08-04T10:51:58.404Z,2.70
2022-08-04T10:54:30.604Z,2.57
2022-08-04T10:57:01.396Z,2.90
2022-08-04T10:59:35.346Z,3.07
2022-08-04T11:02:16.538Z,2.83
2022-08-04T11:04:48.200Z,2.97
2022-08-04T11:07:16.814Z,2.60
2022-08-04T11:09:45.337Z,2.67
2022-08-04T11:12:16.985Z,2.73
2022-08-04T11:14:51.529Z,3.13
2022-08-04T11:17:22.360Z,3.20
2022-08-04T11:20:18.182Z,2.10
2022-08-04T11:22:49.860Z,2.50
2022-08-04T11:25:21.038Z,2.30
2022-08-04T11:27:54.685Z,1.87
2022-08-04T11:30:26.735Z,2.17
2022-08-04T11:33:03.978Z,2.30
2022-08-04T11:35:34.101Z,2.30
2022-08-04T11:38:08.937Z,2.70
2022-08-04T11:40:38.995Z,2.60
2022-08-04T11:43:10.739Z,3.00
2022-08-04T11:45:44.987Z,2.63
2022-08-04T11:48:15.045Z,2.97
2022-08-04T11:50:53.101Z,2.80
2022-08-04T11:53:23.201Z,2.80
2022-08-04T11:56:06.998Z,2.17
2022-08-04T11:58:36.790Z,2.60
2022-08-04T12:01:12.045Z,2.40
2022-08-04T12:03:59.794Z,2.70
2022-08-04T12:06:40.081Z,2.67
2022-08-04T12:09:14.031Z,2.67
2022-08-04T12:11:51.243Z,2.30
2022-08-04T12:14:28.059Z,2.43
2022-08-04T12:17:00.974Z,2.40
2022-08-04T12:19:54.730Z,2.23
2022-08-04T12:22:23.824Z,2.47
2022-08-04T12:25:15.002Z,1.90
2022-08-04T12:27:47.942Z,2.27
2022-08-04T12:31:00.427Z,2.10
2022-08-04T12:33:10.753Z,2.03
2022-08-04T12:36:10.495Z,1.73
2022-08-04T12:38:37.797Z,1.97
2022-08-04T12:41:05.485Z,2.20
2022-08-04T12:43:37.860Z,2.03
2022-08-04T12:46:07.506Z,2.20
2022-08-04T12:48:37.521Z,1.90
2022-08-04T12:51:08.394Z,2.57
2022-08-04T12:54:01.832Z,2.53
2022-08-04T12:56:30.572Z,2.30
2022-08-04T12:59:03.153Z,2.23
2022-08-04T13:02:10.040Z,2.13
2022-08-04T13:04:21.882Z,2.27
2022-08-04T13:06:58.921Z,2.47
2022-08-04T13:09:31.065Z,2.53
2022-08-04T13:12:01.993Z,2.80
2022-08-04T13:14:33.265Z,2.30
2022-08-04T13:17:01.819Z,2.30
2022-08-04T13:19:31.412Z,2.20
2022-08-04T13:22:09.367Z,2.10
2022-08-04T13:24:56.241Z,2.10
2022-08-04T13:27:26.940Z,2.07
2022-08-04T13:29:58.626Z,2.20
2022-08-04T13:32:29.094Z,2.00
2022-08-04T13:35:01.262Z,2.13
2022-08-04T13:37:33.100Z,2.60
2022-08-04T13:40:01.289Z,1.90
2022-08-04T13:42:29.382Z,2.17
2022-08-04T13:44:59.162Z,2.03
2022-08-04T13:47:30.274Z,2.20
2022-08-04T13:50:12.241Z,2.00
2022-08-04T13:52:40.954Z,2.43
2022-08-04T13:55:09.582Z,2.27
2022-08-04T13:57:44.631Z,2.30
2022-08-04T14:00:13.039Z,2.33
2022-08-04T14:02:45.630Z,2.07
2022-08-04T14:05:19.554Z,1.90
2022-08-04T14:07:49.004Z,1.97
2022-08-04T14:10:16.924Z,2.23
2022-08-04T14:12:47.335Z,2.20
2022-08-04T14:16:02.046Z,3.00
2022-08-04T14:18:22.010Z,2.30
2022-08-04T14:21:09.355Z,3.00
2022-08-04T14:23:47.405Z,2.37
2022-08-04T14:26:17.958Z,2.33
2022-08-04T14:29:26.341Z,2.77
2022-08-04T14:31:33.993Z,2.20
2022-08-04T14:34:18.016Z,2.30
2022-08-04T14:37:09.053Z,2.83
2022-08-04T14:39:40.287Z,2.30
2022-08-04T14:42:08.596Z,2.40
2022-08-04T14:44:54.460Z,2.57
2022-08-04T14:47:41.547Z,1.93
2022-08-04T14:50:19.949Z,2.30
2022-08-04T14:52:48.955Z,2.17
2022-08-04T14:55:18.472Z,3.00
2022-08-04T14:58:36.762Z,2.57
2022-08-04T15:00:35.805Z,3.33
2022-08-04T15:03:05.643Z,3.40
2022-08-04T15:06:00.927Z,2.80
2022-08-04T15:08:23.536Z,3.93
2022-08-04T15:10:59.519Z,3.20
2022-08-04T15:13:27.527Z,4.20
2022-08-04T15:16:06.431Z,4.33
2022-08-04T15:18:36.149Z,5.03
2022-08-04T15:21:05.408Z,4.20
2022-08-04T15:23:39.768Z,4.50
2022-08-04T15:26:11.432Z,6.30
2022-08-04T15:28:43.647Z,4.30
2022-08-04T15:32:05.697Z,4.70
2022-08-04T15:33:59.766Z,4.37
2022-08-04T15:36:33.039Z,5.43
2022-08-04T15:39:09.731Z,3.60
2022-08-04T15:41:54.961Z,4.80
2022-08-04T15:44:59.702Z,5.07
2022-08-04T15:47:27.992Z,5.23
2022-08-04T15:50:08.800Z,5.20
2022-08-04T15:53:10.809Z,3.87
2022-08-04T15:55:43.930Z,5.40
2022-08-04T15:58:13.039Z,5.10
2022-08-04T16:01:13.185Z,4.07
2022-08-04T16:03:57.930Z,4.30
2022-08-04T16:06:46.928Z,4.30
2022-08-04T16:09:45.833Z,5.00
2022-08-04T16:12:55.688Z,4.87
2022-08-04T16:15:44.755Z,4.83
2022-08-04T16:18:26.552Z,4.37
2022-08-04T16:20:56.779Z,4.93
2022-08-04T16:24:00.807Z,3.80
2022-08-04T16:26:46.127Z,4.47
2022-08-04T16:29:40.302Z,4.00
2022-08-04T16:32:13.136Z,3.90
2022-08-04T16:34:50.283Z,4.50
2022-08-04T16:37:24.312Z,5.67
2022-08-04T16:40:35.875Z,3.20
2022-08-04T16:43:10.080Z,4.60
2022-08-04T16:45:47.459Z,3.27
2022-08-04T16:48:15.888Z,4.00
2022-08-04T16:50:51.725Z,4.30
2022-08-04T16:53:52.324Z,4.77
2022-08-04T16:56:14.337Z,4.40
2022-08-04T16:58:54.066Z,3.83
2022-08-04T17:01:34.178Z,5.00
2022-08-04T17:04:06.088Z,3.97
2022-08-04T17:06:38.609Z,4.87
2022-08-04T17:09:07.621Z,4.07
2022-08-04T17:11:37.848Z,4.30
2022-08-04T17:14:06.693Z,4.13
2022-08-04T17:16:37.750Z,5.57
2022-08-04T17:19:07.216Z,4.50
2022-08-04T17:21:49.030Z,4.27
2022-08-04T17:24:18.248Z,6.33
2022-08-04T17:29:43.844Z,5.33
2022-08-04T17:32:19.667Z,5.30
2022-08-04T17:34:49.458Z,6.97
2022-08-04T17:37:39.509Z,6.03
2022-08-04T17:40:10.793Z,5.97
2022-08-04T17:42:40.390Z,5.53
2022-08-04T17:48:09.074Z,5.50
2022-08-04T17:50:43.287Z,6.07
2022-08-04T17:53:13.153Z,4.93
2022-08-04T17:55:42.873Z,5.47
2022-08-04T17:58:20.505Z,5.40
2022-08-04T18:01:16.610Z,5.50
2022-08-04T18:03:53.004Z,4.67
2022-08-04T18:06:22.816Z,4.63
2022-08-04T18:08:57.564Z,4.90
2022-08-04T18:11:28.756Z,5.67
2022-08-04T18:14:09.325Z,4.30
2022-08-04T18:16:44.197Z,4.40
2022-08-04T18:19:15.357Z,4.87
2022-08-04T18:22:00.543Z,4.80
2022-08-04T18:24:36.062Z,4.00
2022-08-04T18:27:19.595Z,4.37
2022-08-04T18:30:15.152Z,3.60
2022-08-04T18:32:36.333Z,4.20
2022-08-04T18:35:07.565Z,4.00
2022-08-04T18:38:05.984Z,4.63
2022-08-04T18:40:33.276Z,4.00
2022-08-04T18:43:14.200Z,4.40
2022-08-04T18:45:42.313Z,4.53
2022-08-04T18:48:19.030Z,4.00
2022-08-04T18:51:09.127Z,4.17
2022-08-04T18:53:38.295Z,4.50
2022-08-04T18:56:29.376Z,4.03
2022-08-04T18:58:59.906Z,4.50
2022-08-04T19:02:13.229Z,3.90
2022-08-04T19:04:33.100Z,3.77
2022-08-04T19:07:28.626Z,5.43
2022-08-04T19:09:58.214Z,3.80
2022-08-04T19:12:30.148Z,4.17
2022-08-04T19:15:10.787Z,4.20
2022-08-04T19:17:52.760Z,4.37
2022-08-04T19:20:24.381Z,4.43
2022-08-04T19:24:10.582Z,4.40
2022-08-04T19:25:59.558Z,4.30
2022-08-04T19:28:33.989Z,4.10
2022-08-04T19:31:03.720Z,3.80
2022-08-04T19:33:58.493Z,4.50
2022-08-04T19:36:27.689Z,3.90
2022-08-04T19:38:58.471Z,4.27
2022-08-04T19:41:26.951Z,4.10
2022-08-04T19:43:55.473Z,4.87
2022-08-04T19:50:02.827Z,8.93
2022-08-04T19:52:03.019Z,3.17
2022-08-04T19:54:32.806Z,3.90
2022-08-04T19:57:02.853Z,4.23
2022-08-04T19:59:32.295Z,3.53
2022-08-04T20:02:00.115Z,5.50
2022-08-04T20:04:29.076Z,3.83
2022-08-04T20:06:59.091Z,3.70
2022-08-04T20:09:27.867Z,3.80
2022-08-04T20:11:57.660Z,3.97
2022-08-04T20:14:33.458Z,4.27
2022-08-04T20:17:02.587Z,3.10
2022-08-04T20:19:30.464Z,3.77
2022-08-04T20:21:58.619Z,3.30
2022-08-04T20:24:41.651Z,3.87
2022-08-04T20:27:15.096Z,4.07
2022-08-04T20:29:48.580Z,4.10
2022-08-04T20:32:19.909Z,4.00
2022-08-04T20:34:48.698Z,3.40
2022-08-04T20:37:16.699Z,4.33
2022-08-04T20:39:54.960Z,3.60
2022-08-04T20:42:27.416Z,4.50
2022-08-04T20:45:03.604Z,4.40
2022-08-04T20:47:35.264Z,4.07
2022-08-04T20:50:04.906Z,3.63
2022-08-04T20:52:33.243Z,4.40
2022-08-04T20:55:02.407Z,4.40
2022-08-04T20:57:47.966Z,4.53
2022-08-04T21:00:26.610Z,4.50
2022-08-04T21:02:57.981Z,4.83
2022-08-04T21:05:26.417Z,4.67
2022-08-04T21:07:56.592Z,5.13
2022-08-04T21:10:24.909Z,5.50
2022-08-04T21:12:55.423Z,5.50
2022-08-04T21:15:25.529Z,5.70
2022-08-04T21:20:43.394Z,6.50
2022-08-04T21:23:11.131Z,8.80
2022-08-04T21:25:42.696Z,10.50
2022-08-04T21:28:20.515Z,8.47
2022-08-04T21:30:54.052Z,8.93
2022-08-04T21:33:22.936Z,10.97
2022-08-04T21:35:53.840Z,11.40
2022-08-04T21:38:27.917Z,10.50
2022-08-04T21:40:57.343Z,12.13
2022-08-04T21:43:29.852Z,12.50
2022-08-04T21:46:10.444Z,12.00
2022-08-04T21:48:39.423Z,13.60
2022-08-04T21:51:58.608Z,12.57
2022-08-04T21:54:06.784Z,11.90
2022-08-04T21:56:37.936Z,13.40
2022-08-04T21:59:14.293Z,13.20
2022-08-04T22:01:51.027Z,14.27
2022-08-04T22:04:20.689Z,13.17
2022-08-04T22:06:51.953Z,12.23
2022-08-04T22:09:22.060Z,13.37
2022-08-04T22:11:51.527Z,14.90
2022-08-04T22:14:29.585Z,13.20
2022-08-04T22:17:02.122Z,12.50
2022-08-04T22:19:50.149Z,15.33
2022-08-04T22:22:26.255Z,14.17
2022-08-04T22:24:58.660Z,14.40
2022-08-04T22:27:44.472Z,14.70
2022-08-04T22:30:18.049Z,16.40
2022-08-04T22:32:46.474Z,16.00
2022-08-04T22:35:35.546Z,13.87
2022-08-04T22:38:07.013Z,16.60
2022-08-04T22:40:38.289Z,15.40
2022-08-04T22:43:32.527Z,16.13
2022-08-04T22:45:54.850Z,16.10
2022-08-04T22:48:23.616Z,15.40
2022-08-04T22:50:55.827Z,16.03
2022-08-04T22:53:23.965Z,14.80
2022-08-04T22:56:06.694Z,15.30
2022-08-04T22:58:40.295Z,15.87
2022-08-04T23:01:10.101Z,15.77
2022-08-04T23:03:39.019Z,14.27
2022-08-04T23:06:11.019Z,13.00
2022-08-04T23:08:43.145Z,14.13
2022-08-04T23:11:14.726Z,15.80
2022-08-04T23:13:42.772Z,14.63
2022-08-04T23:16:12.393Z,15.20
2022-08-04T23:18:42.043Z,14.03
2022-08-04T23:21:13.898Z,13.47
2022-08-04T23:23:47.695Z,14.50
2022-08-04T23:26:27.978Z,15.17
2022-08-04T23:28:56.474Z,13.83
2022-08-04T23:31:40.379Z,16.40
2022-08-04T23:34:12.244Z,14.00
2022-08-04T23:36:40.835Z,12.93
2022-08-04T23:39:10.302Z,13.47
2022-08-04T23:41:53.348Z,13.00
2022-08-04T23:44:24.839Z,11.80
2022-08-04T23:46:59.951Z,12.60
2022-08-04T23:49:43.606Z,11.77
2022-08-04T23:52:23.216Z,11.90
2022-08-04T23:54:55.620Z,11.53
2022-08-04T23:57:23.262Z,10.40
2022-08-04T23:59:54.431Z,10.53
